Terminal Aerodrome Forecast
Issued by NWS Pocatello, ID

Home | Current Version | Previous Version | Text Only | Print | Product List | Glossary On
Versions: 1 2 3 4 5 6 7 8 9 10 11 12 13 14 15 16 17 18 19 20
000
FTUS45 KPIH 201720
TAFPIH
TAF
KPIH 201720Z 2018/2118 27010KT P6SM SCT015 BKN050
      TEMPO 2018/2019 BKN015
     FM202300 35006KT P6SM SCT050
     FM210900 25011KT P6SM SCT010 BKN050
     FM211400 23007KT P6SM BKN010=

USA.gov is the U.S. government's official web portal to all federal, state and local government web resources and services.